createdAt,value
2022-12-25T00:04:32.226Z,46.23
2022-12-25T00:09:54.519Z,48.87
2022-12-25T00:15:17.219Z,45.92
2022-12-25T00:20:39.416Z,45.58
2022-12-25T00:26:01.829Z,46.57
2022-12-25T00:31:29.941Z,47.08
2022-12-25T00:36:52.556Z,51.42
2022-12-25T00:42:23.780Z,46.55
2022-12-25T00:47:46.490Z,41.15
2022-12-25T00:53:08.714Z,41.28
2022-12-25T00:58:31.485Z,41.28
2022-12-25T01:03:53.693Z,43.30
2022-12-25T01:09:33.706Z,38.60
2022-12-25T01:20:13.430Z,43.45
2022-12-25T01:25:35.696Z,40.08
2022-12-25T01:31:01.956Z,40.92
2022-12-25T01:36:30.724Z,39.48
2022-12-25T01:41:53.180Z,41.00
2022-12-25T01:47:19.106Z,42.43
2022-12-25T01:52:43.222Z,43.00
2022-12-25T01:58:05.516Z,40.75
2022-12-25T02:03:28.385Z,42.17
2022-12-25T02:08:50.900Z,43.48
2022-12-25T02:14:13.651Z,46.02
2022-12-25T02:19:57.617Z,45.55
2022-12-25T02:25:43.520Z,47.27
2022-12-25T02:31:29.108Z,45.33
2022-12-25T02:37:04.914Z,45.35
2022-12-25T02:43:00.985Z,40.67
2022-12-25T02:48:43.620Z,50.30
2022-12-25T02:54:28.288Z,47.83
2022-12-25T03:00:12.219Z,47.37
2022-12-25T03:05:56.109Z,44.42
2022-12-25T03:11:33.766Z,48.60
2022-12-25T03:16:57.743Z,46.00
2022-12-25T03:22:49.594Z,50.15
2022-12-25T03:28:13.996Z,49.53
2022-12-25T03:33:46.272Z,49.23
2022-12-25T03:39:47.189Z,52.40
2022-12-25T03:45:35.075Z,57.83
2022-12-25T03:51:31.879Z,45.50
2022-12-25T03:57:14.925Z,49.17
2022-12-25T04:02:54.911Z,51.00
2022-12-25T04:14:09.389Z,50.90
2022-12-25T04:19:49.344Z,56.23
2022-12-25T04:25:29.164Z,57.13
2022-12-25T04:31:09.329Z,61.47
2022-12-25T04:36:31.702Z,62.40
2022-12-25T04:41:54.124Z,61.03
2022-12-25T04:47:16.370Z,61.10
2022-12-25T04:52:40.355Z,54.47
2022-12-25T04:58:02.633Z,61.73
2022-12-25T05:03:25.514Z,67.78
2022-12-25T05:08:48.787Z,66.30
2022-12-25T05:14:11.226Z,60.80
2022-12-25T05:19:33.795Z,62.50
2022-12-25T05:24:56.100Z,60.73
2022-12-25T05:30:19.046Z,64.33
2022-12-25T05:35:42.894Z,59.83
2022-12-25T05:41:05.329Z,61.23
2022-12-25T05:46:29.018Z,65.27
2022-12-25T05:51:51.619Z,64.55
2022-12-25T05:57:14.013Z,70.17
2022-12-25T06:02:36.867Z,60.52
2022-12-25T06:07:59.471Z,61.60
2022-12-25T06:13:22.262Z,66.50
2022-12-25T06:18:48.039Z,64.23
2022-12-25T06:24:17.651Z,61.30
2022-12-25T06:29:36.250Z,55.20
2022-12-25T06:34:58.465Z,54.30
2022-12-25T06:40:21.374Z,49.20
2022-12-25T06:45:43.906Z,49.95
2022-12-25T06:51:06.313Z,52.35
2022-12-25T06:56:34.521Z,50.33
2022-12-25T07:02:03.591Z,52.63
2022-12-25T07:07:27.357Z,53.27
2022-12-25T07:12:49.628Z,50.80
2022-12-25T07:18:11.915Z,48.23
2022-12-25T07:23:34.622Z,46.95
2022-12-25T07:28:57.181Z,49.90
2022-12-25T07:34:19.446Z,50.23
2022-12-25T07:39:41.749Z,51.63
2022-12-25T07:45:04.258Z,54.33
2022-12-25T07:50:27.086Z,62.27
2022-12-25T07:55:49.312Z,55.90
2022-12-25T08:01:23.942Z,57.37
2022-12-25T08:06:49.023Z,57.17
2022-12-25T08:12:11.608Z,54.20
2022-12-25T08:17:33.872Z,57.13
2022-12-25T08:22:56.222Z,58.60
2022-12-25T08:28:20.086Z,59.43
2022-12-25T08:33:44.081Z,61.88
2022-12-25T08:39:06.941Z,57.60
2022-12-25T08:44:31.183Z,60.73
2022-12-25T08:49:53.483Z,69.23
2022-12-25T08:55:15.976Z,68.55
2022-12-25T09:00:38.529Z,62.73
2022-12-25T09:06:01.596Z,66.85
2022-12-25T09:11:27.358Z,63.90
2022-12-25T09:16:49.886Z,70.40
2022-12-25T09:22:12.160Z,66.63
2022-12-25T09:27:34.978Z,64.40
2022-12-25T09:32:57.558Z,76.10
2022-12-25T09:38:19.936Z,71.03
2022-12-25T09:43:49.394Z,74.27
2022-12-25T09:49:47.690Z,72.33
2022-12-25T09:55:24.497Z,68.07
2022-12-25T10:00:57.891Z,66.15
2022-12-25T10:07:04.429Z,64.17
2022-12-25T10:12:49.935Z,67.40
2022-12-25T10:18:25.106Z,71.62
2022-12-25T10:23:54.441Z,78.92
2022-12-25T10:29:21.563Z,61.63
2022-12-25T10:34:45.789Z,76.30
2022-12-25T10:40:08.135Z,75.90
2022-12-25T10:45:30.440Z,79.67
2022-12-25T10:50:54.654Z,76.80
2022-12-25T10:56:29.468Z,69.60
2022-12-25T11:01:55.254Z,76.12
2022-12-25T11:07:27.768Z,73.22
2022-12-25T11:12:53.170Z,74.03
2022-12-25T11:18:29.315Z,68.93
2022-12-25T11:23:54.675Z,71.72
2022-12-25T11:29:33.032Z,110.73
2022-12-25T11:34:58.938Z,72.70
2022-12-25T11:40:24.571Z,71.50
2022-12-25T11:45:57.590Z,67.37
2022-12-25T11:51:22.343Z,65.50
2022-12-25T11:56:46.131Z,70.53
2022-12-25T12:02:34.270Z,71.40
2022-12-25T12:08:06.726Z,65.95
2022-12-25T12:13:45.993Z,68.35
2022-12-25T12:19:10.602Z,74.87
2022-12-25T12:24:43.144Z,72.97
2022-12-25T12:30:08.710Z,72.03
2022-12-25T12:35:44.291Z,69.35
2022-12-25T12:41:19.394Z,68.72
2022-12-25T12:46:49.775Z,77.58
2022-12-25T12:52:42.578Z,75.75
2022-12-25T12:58:10.835Z,75.60
2022-12-25T13:03:53.352Z,81.60
2022-12-25T13:09:54.284Z,80.80
2022-12-25T13:15:19.401Z,80.12
2022-12-25T13:21:02.667Z,83.50
2022-12-25T13:26:33.840Z,85.30
2022-12-25T13:31:57.009Z,149.27
2022-12-25T13:37:23.579Z,87.33
2022-12-25T13:42:51.539Z,80.38
2022-12-25T13:48:17.130Z,84.03
2022-12-25T13:53:40.339Z,73.60
2022-12-25T13:59:05.575Z,74.22
2022-12-25T14:04:31.420Z,76.50
2022-12-25T14:09:54.936Z,73.55
2022-12-25T14:15:20.316Z,88.47
2022-12-25T14:20:48.998Z,83.20
2022-12-25T14:26:11.582Z,79.50
2022-12-25T14:31:35.062Z,74.30
2022-12-25T14:36:58.715Z,67.32
2022-12-25T14:42:28.399Z,74.30
2022-12-25T14:48:07.391Z,80.75
2022-12-25T14:53:41.136Z,78.85
2022-12-25T14:59:10.554Z,83.78
2022-12-25T15:04:35.886Z,73.37
2022-12-25T15:10:27.029Z,74.37
2022-12-25T15:15:23.290Z,83.10
2022-12-25T15:20:56.696Z,81.78
2022-12-25T15:26:20.003Z,83.33
2022-12-25T15:31:45.045Z,82.90
2022-12-25T15:37:07.545Z,92.72
2022-12-25T15:42:33.246Z,79.70
2022-12-25T15:47:56.200Z,88.27
2022-12-25T15:53:18.735Z,85.70
2022-12-25T15:58:41.188Z,110.68
2022-12-25T16:04:03.797Z,143.68
2022-12-25T16:09:28.238Z,90.12
2022-12-25T16:14:51.062Z,80.83
2022-12-25T16:20:14.436Z,78.90
2022-12-25T16:25:37.857Z,80.35
2022-12-25T16:31:02.057Z,76.82
2022-12-25T16:41:57.916Z,72.03
2022-12-25T16:47:20.368Z,72.72
2022-12-25T16:52:44.168Z,76.57
2022-12-25T16:58:06.991Z,73.37
2022-12-25T17:03:29.979Z,69.53
2022-12-25T17:08:52.771Z,69.93
2022-12-25T17:14:19.542Z,69.47
2022-12-25T17:19:42.820Z,63.80
2022-12-25T17:25:06.091Z,63.85
2022-12-25T17:30:29.316Z,61.90
2022-12-25T17:35:56.158Z,67.00
2022-12-25T17:41:20.137Z,67.27
2022-12-25T17:46:44.085Z,60.00
2022-12-25T17:52:06.796Z,56.60
2022-12-25T17:57:29.063Z,64.27
2022-12-25T18:02:53.104Z,99.23
2022-12-25T18:08:15.799Z,59.37
2022-12-25T18:13:38.205Z,62.70
2022-12-25T18:19:01.521Z,68.87
2022-12-25T18:24:24.738Z,66.87
2022-12-25T18:29:46.991Z,65.03
2022-12-25T18:35:11.127Z,62.43
2022-12-25T18:40:33.479Z,66.42
2022-12-25T18:46:05.461Z,60.23
2022-12-25T18:51:36.578Z,57.77
2022-12-25T18:56:54.621Z,55.43
2022-12-25T19:02:17.926Z,48.85
2022-12-25T19:07:41.207Z,57.58
2022-12-25T19:13:03.424Z,49.63
2022-12-25T19:18:25.994Z,53.80
2022-12-25T19:23:49.566Z,51.75
2022-12-25T19:29:15.767Z,53.10
2022-12-25T19:34:43.184Z,52.43
2022-12-25T19:40:05.601Z,64.75
2022-12-25T19:45:28.928Z,51.48
2022-12-25T19:50:51.261Z,52.90
2022-12-25T19:56:14.569Z,53.73
2022-12-25T20:01:39.784Z,53.95
2022-12-25T20:07:02.746Z,50.35
2022-12-25T20:12:25.098Z,53.33
2022-12-25T20:17:48.123Z,49.25
2022-12-25T20:23:10.528Z,51.30
2022-12-25T20:28:34.775Z,55.90
2022-12-25T20:33:57.024Z,49.10
2022-12-25T20:39:20.299Z,58.03
2022-12-25T20:44:42.876Z,49.05
2022-12-25T20:50:06.107Z,50.78
2022-12-25T20:55:28.493Z,51.50
2022-12-25T21:00:52.305Z,53.40
2022-12-25T21:06:16.341Z,51.90
2022-12-25T21:11:39.018Z,51.02
2022-12-25T21:17:01.710Z,49.98
2022-12-25T21:22:25.335Z,50.10
2022-12-25T21:27:48.012Z,54.95
2022-12-25T21:33:28.538Z,51.85
2022-12-25T21:38:52.244Z,49.47
2022-12-25T21:44:19.925Z,54.77
2022-12-25T21:49:59.870Z,54.83
2022-12-25T21:55:22.301Z,50.37
2022-12-25T22:00:45.011Z,56.77
2022-12-25T22:06:27.041Z,48.02
2022-12-25T22:12:06.967Z,55.17
2022-12-25T22:17:52.747Z,52.90
2022-12-25T22:23:16.607Z,50.15
2022-12-25T22:28:48.764Z,50.92
2022-12-25T22:34:13.670Z,52.27
2022-12-25T22:39:36.614Z,59.83
2022-12-25T22:44:58.879Z,61.88
2022-12-25T22:50:21.981Z,55.73
2022-12-25T22:55:44.377Z,55.97
2022-12-25T23:01:07.778Z,52.83
2022-12-25T23:06:30.460Z,50.37
2022-12-25T23:11:52.972Z,50.83
2022-12-25T23:17:36.425Z,49.83
2022-12-25T23:23:17.353Z,51.53
2022-12-25T23:28:57.744Z,47.80
2022-12-25T23:34:20.859Z,47.73
2022-12-25T23:39:43.195Z,46.23
2022-12-25T23:45:05.498Z,46.40
2022-12-25T23:50:28.198Z,54.73
2022-12-25T23:55:55.777Z,51.65
